createdAt,value
2022-10-29T00:01:14.461Z,4.63
2022-10-29T00:03:44.423Z,4.63
2022-10-29T00:06:13.697Z,5.53
2022-10-29T00:08:43.344Z,4.90
2022-10-29T00:11:14.422Z,5.05
2022-10-29T00:13:43.617Z,4.75
2022-10-29T00:16:14.913Z,4.82
2022-10-29T00:18:45.315Z,4.90
2022-10-29T00:21:16.570Z,4.85
2022-10-29T00:23:45.219Z,4.80
2022-10-29T00:26:14.712Z,4.00
2022-10-29T00:28:43.189Z,4.80
2022-10-29T00:31:14.747Z,4.55
2022-10-29T00:33:44.527Z,4.28
2022-10-29T00:36:16.188Z,4.97
2022-10-29T00:38:45.014Z,10.43
2022-10-29T00:41:16.217Z,5.82
2022-10-29T00:43:50.176Z,4.70
2022-10-29T00:46:25.668Z,4.70
2022-10-29T00:48:58.580Z,4.28
2022-10-29T00:51:28.493Z,4.88
2022-10-29T00:54:02.840Z,4.43
2022-10-29T00:56:35.244Z,4.00
2022-10-29T00:59:04.427Z,4.93
2022-10-29T01:01:32.917Z,5.00
2022-10-29T01:04:03.906Z,5.13
2022-10-29T01:06:34.434Z,4.68
2022-10-29T01:09:02.670Z,4.32
2022-10-29T01:11:45.317Z,4.38
2022-10-29T01:14:24.384Z,5.00
2022-10-29T01:17:01.255Z,4.40
2022-10-29T01:20:15.309Z,4.10
2022-10-29T01:22:48.810Z,4.95
2022-10-29T01:25:41.126Z,4.97
2022-10-29T01:28:26.156Z,4.07
2022-10-29T01:31:19.454Z,4.65
2022-10-29T01:33:56.623Z,4.32
2022-10-29T01:36:34.331Z,4.57
2022-10-29T01:39:10.519Z,4.15
2022-10-29T01:41:52.519Z,4.80
2022-10-29T01:44:35.649Z,4.03
2022-10-29T01:47:10.987Z,4.43
2022-10-29T01:49:43.534Z,4.07
2022-10-29T01:54:44.311Z,5.22
2022-10-29T01:57:32.027Z,5.38
2022-10-29T02:00:05.660Z,4.57
2022-10-29T02:03:07.932Z,5.00
2022-10-29T02:05:49.678Z,4.55
2022-10-29T02:08:30.559Z,4.55
2022-10-29T02:11:08.042Z,4.55
2022-10-29T02:13:44.692Z,4.53
2022-10-29T02:16:15.266Z,4.95
2022-10-29T02:18:47.557Z,3.95
2022-10-29T02:21:17.330Z,4.85
2022-10-29T02:23:45.973Z,4.57
2022-10-29T02:26:15.015Z,4.43
2022-10-29T02:28:44.122Z,5.15
2022-10-29T02:31:12.907Z,3.88
2022-10-29T02:33:41.480Z,4.32
2022-10-29T02:36:11.894Z,5.25
2022-10-29T02:38:40.445Z,4.85
2022-10-29T02:41:08.859Z,4.88
2022-10-29T02:43:37.498Z,4.75
2022-10-29T02:49:04.144Z,5.65
2022-10-29T02:51:34.020Z,6.15
2022-10-29T02:54:02.670Z,6.75
2022-10-29T02:56:31.006Z,6.00
2022-10-29T02:58:59.510Z,6.93
2022-10-29T03:01:27.899Z,7.30
2022-10-29T03:03:56.422Z,6.82
2022-10-29T03:06:24.827Z,5.97
2022-10-29T03:08:54.750Z,6.47
2022-10-29T03:11:23.015Z,6.50
2022-10-29T03:13:51.289Z,5.82
2022-10-29T03:16:19.558Z,6.90
2022-10-29T03:18:47.863Z,7.13
2022-10-29T03:21:16.520Z,6.32
2022-10-29T03:23:44.768Z,6.80
2022-10-29T03:26:15.378Z,7.05
2022-10-29T03:28:43.756Z,7.03
2022-10-29T03:31:12.432Z,6.68
2022-10-29T03:33:40.746Z,6.75
2022-10-29T03:36:10.105Z,6.28
2022-10-29T03:38:38.771Z,6.22
2022-10-29T03:41:10.516Z,6.25
2022-10-29T03:43:41.520Z,5.47
2022-10-29T03:46:09.992Z,5.88
2022-10-29T03:48:39.003Z,5.90
2022-10-29T03:51:08.517Z,6.38
2022-10-29T03:53:38.242Z,6.93
2022-10-29T03:56:08.132Z,6.53
2022-10-29T03:58:36.708Z,6.25
2022-10-29T04:01:08.752Z,6.28
2022-10-29T04:03:39.019Z,7.00
2022-10-29T04:06:13.626Z,6.88
2022-10-29T04:08:42.638Z,6.45
2022-10-29T04:11:13.077Z,6.82
2022-10-29T04:13:41.464Z,7.22
2022-10-29T04:16:11.172Z,6.53
2022-10-29T04:18:40.129Z,7.25
2022-10-29T04:29:34.567Z,5.68
2022-10-29T04:32:04.448Z,5.75
2022-10-29T04:34:32.824Z,5.53
2022-10-29T04:37:01.114Z,5.72
2022-10-29T04:39:29.698Z,5.85
2022-10-29T04:41:58.345Z,5.68
2022-10-29T04:44:26.657Z,6.22
2022-10-29T04:46:55.006Z,6.00
2022-10-29T04:49:24.897Z,5.47
2022-10-29T04:51:53.254Z,5.72
2022-10-29T04:54:21.479Z,6.07
2022-10-29T04:56:49.979Z,5.97
2022-10-29T04:59:18.321Z,6.32
2022-10-29T05:01:46.789Z,5.57
2022-10-29T05:04:15.179Z,5.70
2022-10-29T05:06:44.851Z,5.65
2022-10-29T05:09:13.189Z,5.25
2022-10-29T05:11:42.026Z,6.00
2022-10-29T05:14:10.406Z,6.57
2022-10-29T05:16:38.836Z,6.70
2022-10-29T05:19:07.230Z,6.65
2022-10-29T05:21:35.459Z,6.18
2022-10-29T05:24:05.756Z,6.22
2022-10-29T05:26:34.209Z,5.93
2022-10-29T05:29:02.871Z,6.30
2022-10-29T05:31:31.680Z,5.90
2022-10-29T05:34:00.198Z,6.03
2022-10-29T05:36:28.708Z,6.13
2022-10-29T05:38:56.949Z,6.20
2022-10-29T05:41:26.775Z,5.78
2022-10-29T05:43:55.135Z,5.68
2022-10-29T05:46:23.526Z,5.82
2022-10-29T05:48:51.813Z,5.90
2022-10-29T05:51:20.820Z,6.22
2022-10-29T05:53:49.523Z,5.72
2022-10-29T05:56:17.988Z,5.80
2022-10-29T05:58:50.568Z,5.95
2022-10-29T06:01:19.697Z,5.65
2022-10-29T06:03:48.567Z,6.53
2022-10-29T06:06:17.152Z,6.78
2022-10-29T06:08:45.418Z,5.88
2022-10-29T06:11:13.868Z,6.43
2022-10-29T06:13:42.199Z,7.60
2022-10-29T06:16:12.107Z,7.07
2022-10-29T06:18:40.477Z,6.05
2022-10-29T06:21:08.971Z,5.97
2022-10-29T06:23:37.299Z,6.57
2022-10-29T06:26:05.941Z,6.55
2022-10-29T06:28:35.108Z,5.65
2022-10-29T06:31:04.263Z,6.57
2022-10-29T06:33:36.218Z,6.25
2022-10-29T06:36:05.163Z,5.90
2022-10-29T06:38:34.079Z,6.20
2022-10-29T06:41:02.376Z,6.75
2022-10-29T06:43:30.598Z,5.57
2022-10-29T06:46:00.111Z,5.82
2022-10-29T06:48:28.450Z,6.72
2022-10-29T06:51:00.427Z,6.63
2022-10-29T06:53:29.294Z,6.85
2022-10-29T06:55:59.623Z,6.07
2022-10-29T06:58:28.209Z,6.18
2022-10-29T07:03:26.299Z,6.47
2022-10-29T07:05:59.521Z,6.72
2022-10-29T07:08:29.039Z,6.20
2022-10-29T07:10:57.866Z,6.97
2022-10-29T07:13:27.092Z,6.13
2022-10-29T07:15:55.416Z,5.72
2022-10-29T07:18:24.200Z,6.10
2022-10-29T07:20:52.445Z,6.75
2022-10-29T07:23:22.924Z,6.90
2022-10-29T07:25:54.623Z,6.43
2022-10-29T07:28:25.451Z,6.15
2022-10-29T07:30:59.478Z,6.72
2022-10-29T07:33:30.796Z,5.15
2022-10-29T07:36:00.643Z,5.97
2022-10-29T07:38:30.237Z,6.00
2022-10-29T07:40:58.972Z,5.60
2022-10-29T07:43:27.280Z,6.05
2022-10-29T07:45:55.501Z,5.47
2022-10-29T07:48:24.101Z,6.30
2022-10-29T07:50:52.351Z,5.28
2022-10-29T07:53:20.687Z,5.07
2022-10-29T07:55:55.866Z,6.35
2022-10-29T07:58:24.867Z,5.82
2022-10-29T08:00:53.949Z,6.82
2022-10-29T08:03:22.798Z,7.03
2022-10-29T08:05:56.219Z,6.57
2022-10-29T08:08:25.096Z,6.68
2022-10-29T08:10:59.926Z,6.32
2022-10-29T08:13:28.263Z,6.22
2022-10-29T08:15:57.096Z,6.72
2022-10-29T08:18:25.627Z,5.80
2022-10-29T08:20:53.935Z,5.75
2022-10-29T08:23:22.471Z,5.57
2022-10-29T08:25:50.835Z,6.25
2022-10-29T08:28:24.028Z,6.15
2022-10-29T08:30:53.843Z,6.13
2022-10-29T08:33:22.284Z,6.53
2022-10-29T08:35:50.723Z,6.88
2022-10-29T08:38:19.318Z,6.00
2022-10-29T08:41:08.201Z,6.30
2022-10-29T08:44:12.060Z,6.47
2022-10-29T08:46:47.763Z,8.63
2022-10-29T08:49:21.083Z,8.60
2022-10-29T08:51:56.611Z,9.20
2022-10-29T08:54:31.419Z,8.95
2022-10-29T08:57:07.230Z,9.20
2022-10-29T08:59:44.793Z,8.82
2022-10-29T09:02:18.455Z,8.52
2022-10-29T09:04:46.998Z,9.90
2022-10-29T09:07:45.044Z,8.98
2022-10-29T09:10:26.111Z,9.80
2022-10-29T09:13:18.584Z,8.20
2022-10-29T09:16:05.598Z,7.82
2022-10-29T09:18:52.561Z,7.43
2022-10-29T09:21:33.336Z,7.65
2022-10-29T09:24:15.045Z,8.82
2022-10-29T09:26:58.282Z,9.97
2022-10-29T09:29:59.831Z,11.68
2022-10-29T09:32:35.039Z,13.38
2022-10-29T09:35:08.026Z,13.90
2022-10-29T09:37:46.710Z,13.18
2022-10-29T09:40:29.192Z,10.77
2022-10-29T09:42:59.845Z,12.20
2022-10-29T09:45:43.945Z,10.75
2022-10-29T09:48:23.068Z,10.98
2022-10-29T09:51:02.960Z,11.68
2022-10-29T09:53:31.297Z,10.68
2022-10-29T09:55:59.763Z,11.05
2022-10-29T09:58:29.489Z,13.10
2022-10-29T10:00:58.066Z,11.88
2022-10-29T10:03:35.124Z,11.55
2022-10-29T10:06:05.822Z,9.85
2022-10-29T10:08:36.466Z,8.80
2022-10-29T10:11:07.116Z,8.38
2022-10-29T10:13:38.722Z,9.38
2022-10-29T10:16:08.360Z,11.23
2022-10-29T10:21:28.724Z,7.28
2022-10-29T10:23:58.570Z,7.80
2022-10-29T10:26:34.138Z,7.85
2022-10-29T10:29:11.873Z,6.85
2022-10-29T10:31:40.894Z,8.38
2022-10-29T10:34:21.015Z,7.13
2022-10-29T10:36:53.627Z,7.03
2022-10-29T10:39:31.527Z,7.40
2022-10-29T10:42:04.837Z,7.30
2022-10-29T10:44:33.942Z,7.05
2022-10-29T10:47:09.364Z,7.20
2022-10-29T10:49:40.404Z,7.45
2022-10-29T10:52:19.102Z,7.07
2022-10-29T10:54:55.151Z,6.53
2022-10-29T10:57:27.272Z,5.72
2022-10-29T11:00:08.151Z,5.00
2022-10-29T11:02:49.743Z,4.63
2022-10-29T11:05:24.007Z,3.95
2022-10-29T11:08:02.488Z,4.30
2022-10-29T11:10:41.715Z,4.78
2022-10-29T11:13:17.530Z,4.20
2022-10-29T11:15:53.631Z,3.88
2022-10-29T11:18:29.383Z,4.60
2022-10-29T11:21:12.636Z,4.30
2022-10-29T11:26:21.235Z,3.78
2022-10-29T11:28:56.655Z,3.92
2022-10-29T11:31:33.538Z,3.45
2022-10-29T11:34:12.049Z,3.70
2022-10-29T11:36:48.424Z,3.78
2022-10-29T11:39:24.050Z,3.35
2022-10-29T11:41:59.426Z,4.40
2022-10-29T11:44:29.398Z,3.97
2022-10-29T11:47:19.000Z,3.80
2022-10-29T11:50:16.509Z,3.30
2022-10-29T11:52:56.679Z,3.80
2022-10-29T11:55:36.984Z,3.65
2022-10-29T11:58:17.354Z,4.03
2022-10-29T12:01:02.086Z,3.55
2022-10-29T12:03:47.641Z,3.80
2022-10-29T12:06:23.014Z,4.45
2022-10-29T12:09:05.391Z,4.43
2022-10-29T12:11:43.194Z,3.95
2022-10-29T12:14:29.988Z,4.63
2022-10-29T12:17:09.865Z,4.25
2022-10-29T12:19:51.827Z,4.32
2022-10-29T12:22:35.420Z,4.25
2022-10-29T12:25:32.784Z,3.60
2022-10-29T12:28:18.948Z,3.72
2022-10-29T12:31:05.865Z,3.60
2022-10-29T12:33:39.972Z,3.55
2022-10-29T12:36:16.415Z,3.85
2022-10-29T12:38:52.003Z,4.47
2022-10-29T12:41:27.926Z,3.55
2022-10-29T12:44:04.843Z,3.83
2022-10-29T12:46:41.025Z,3.65
2022-10-29T12:49:18.273Z,4.32
2022-10-29T12:51:52.875Z,4.40
2022-10-29T12:54:37.211Z,4.28
2022-10-29T12:57:29.620Z,3.90
2022-10-29T13:02:31.281Z,3.67
2022-10-29T13:05:19.013Z,4.32
2022-10-29T13:08:28.968Z,4.22
2022-10-29T13:10:58.465Z,3.92
2022-10-29T13:13:51.472Z,4.20
2022-10-29T13:16:26.180Z,3.75
2022-10-29T13:19:10.597Z,3.70
2022-10-29T13:22:03.993Z,3.60
2022-10-29T13:24:33.212Z,4.18
2022-10-29T13:27:09.893Z,5.13
2022-10-29T13:29:48.670Z,4.95
2022-10-29T13:32:35.402Z,5.40
2022-10-29T13:35:06.838Z,5.40
2022-10-29T13:37:52.022Z,4.68
2022-10-29T13:41:13.109Z,5.28
2022-10-29T13:43:52.232Z,5.60
2022-10-29T13:46:35.523Z,6.38
2022-10-29T13:49:14.092Z,5.63
2022-10-29T13:51:51.227Z,5.97
2022-10-29T13:54:30.384Z,6.80
2022-10-29T13:57:01.969Z,7.68
2022-10-29T13:59:40.790Z,7.32
2022-10-29T14:02:44.025Z,6.03
2022-10-29T14:05:20.798Z,5.57
2022-10-29T14:07:57.146Z,6.00
2022-10-29T14:13:08.746Z,6.18
2022-10-29T14:15:39.321Z,6.00
2022-10-29T14:18:26.687Z,19.77
2022-10-29T14:21:00.011Z,66.82
2022-10-29T14:23:32.718Z,36.67
2022-10-29T14:26:04.209Z,64.72
2022-10-29T14:28:34.737Z,72.30
2022-10-29T14:31:06.772Z,55.15
2022-10-29T14:33:38.445Z,111.45
2022-10-29T14:36:17.607Z,68.20
2022-10-29T14:38:50.920Z,5.78
2022-10-29T14:41:21.398Z,4.97
2022-10-29T14:43:57.818Z,6.50
2022-10-29T14:46:30.045Z,6.25
2022-10-29T14:49:12.486Z,96.43
2022-10-29T14:54:21.662Z,9.85
2022-10-29T14:56:54.249Z,15.68
2022-10-29T14:59:29.297Z,81.82
2022-10-29T15:02:17.260Z,31.75
2022-10-29T15:04:57.309Z,71.78
2022-10-29T15:07:35.475Z,82.65
2022-10-29T15:10:25.037Z,156.30
2022-10-29T15:12:55.350Z,152.55
2022-10-29T15:15:28.290Z,125.60
2022-10-29T15:18:02.625Z,247.70
2022-10-29T15:20:46.996Z,247.73
2022-10-29T15:23:23.459Z,240.00
2022-10-29T15:25:59.007Z,10.70
